sensor_id;sensor_type;location;lat;lon;timestamp;P1;durP1;ratioP1;P2;durP2;ratioP2
12663;SDS011;6396;58.490;15.528;2022-07-06T00:02:09;4.47;;;2.00;;
12663;SDS011;6396;58.490;15.528;2022-07-06T00:04:36;3.83;;;1.70;;
12663;SDS011;6396;58.490;15.528;2022-07-06T00:07:03;4.83;;;1.70;;
12663;SDS011;6396;58.490;15.528;2022-07-06T00:09:30;5.90;;;1.53;;
12663;SDS011;6396;58.490;15.528;2022-07-06T00:11:58;4.43;;;1.80;;
12663;SDS011;6396;58.490;15.528;2022-07-06T00:14:25;2.80;;;1.67;;
12663;SDS011;6396;58.490;15.528;2022-07-06T00:16:52;3.33;;;1.77;;
12663;SDS011;6396;58.490;15.528;2022-07-06T00:19:19;5.07;;;1.90;;
12663;SDS011;6396;58.490;15.528;2022-07-06T00:21:45;2.50;;;1.60;;
12663;SDS011;6396;58.490;15.528;2022-07-06T00:24:12;5.23;;;2.07;;
12663;SDS011;6396;58.490;15.528;2022-07-06T00:26:39;2.70;;;1.80;;
12663;SDS011;6396;58.490;15.528;2022-07-06T00:29:07;4.53;;;2.27;;
12663;SDS011;6396;58.490;15.528;2022-07-06T00:31:34;4.87;;;1.67;;
12663;SDS011;6396;58.490;15.528;2022-07-06T00:34:01;3.70;;;1.80;;
12663;SDS011;6396;58.490;15.528;2022-07-06T00:36:28;3.77;;;1.70;;
12663;SDS011;6396;58.490;15.528;2022-07-06T00:38:55;5.87;;;2.10;;
12663;SDS011;6396;58.490;15.528;2022-07-06T00:41:21;3.73;;;1.80;;
12663;SDS011;6396;58.490;15.528;2022-07-06T00:43:49;2.67;;;1.67;;
12663;SDS011;6396;58.490;15.528;2022-07-06T00:46:18;3.60;;;1.70;;
12663;SDS011;6396;58.490;15.528;2022-07-06T00:48:46;4.13;;;1.87;;
12663;SDS011;6396;58.490;15.528;2022-07-06T00:51:13;6.90;;;2.50;;
12663;SDS011;6396;58.490;15.528;2022-07-06T00:53:41;6.50;;;2.07;;
12663;SDS011;6396;58.490;15.528;2022-07-06T00:56:09;3.73;;;1.83;;
12663;SDS011;6396;58.490;15.528;2022-07-06T00:58:36;4.33;;;2.00;;
12663;SDS011;6396;58.490;15.528;2022-07-06T01:01:03;3.40;;;1.87;;
12663;SDS011;6396;58.490;15.528;2022-07-06T01:03:31;2.37;;;1.93;;
12663;SDS011;6396;58.490;15.528;2022-07-06T01:05:58;5.37;;;2.20;;
12663;SDS011;6396;58.490;15.528;2022-07-06T01:08:26;4.50;;;1.97;;
12663;SDS011;6396;58.490;15.528;2022-07-06T01:10:52;3.50;;;2.10;;
12663;SDS011;6396;58.490;15.528;2022-07-06T01:13:19;2.17;;;1.70;;
12663;SDS011;6396;58.490;15.528;2022-07-06T01:15:46;4.47;;;1.87;;
12663;SDS011;6396;58.490;15.528;2022-07-06T01:18:13;3.63;;;2.13;;
12663;SDS011;6396;58.490;15.528;2022-07-06T01:20:41;4.30;;;1.87;;
12663;SDS011;6396;58.490;15.528;2022-07-06T01:23:08;4.30;;;2.00;;
12663;SDS011;6396;58.490;15.528;2022-07-06T01:25:35;3.97;;;1.90;;
12663;SDS011;6396;58.490;15.528;2022-07-06T01:28:02;6.17;;;2.00;;
12663;SDS011;6396;58.490;15.528;2022-07-06T01:30:30;5.20;;;1.70;;
12663;SDS011;6396;58.490;15.528;2022-07-06T01:32:56;4.33;;;1.80;;
12663;SDS011;6396;58.490;15.528;2022-07-06T01:35:23;3.33;;;1.73;;
12663;SDS011;6396;58.490;15.528;2022-07-06T01:37:54;3.77;;;2.00;;
12663;SDS011;6396;58.490;15.528;2022-07-06T01:40:20;4.10;;;1.83;;
12663;SDS011;6396;58.490;15.528;2022-07-06T01:42:47;3.67;;;1.87;;
12663;SDS011;6396;58.490;15.528;2022-07-06T01:45:14;3.03;;;1.90;;
12663;SDS011;6396;58.490;15.528;2022-07-06T01:47:40;5.07;;;2.13;;
12663;SDS011;6396;58.490;15.528;2022-07-06T01:50:08;3.27;;;1.67;;
12663;SDS011;6396;58.490;15.528;2022-07-06T01:52:35;3.83;;;1.97;;
12663;SDS011;6396;58.490;15.528;2022-07-06T01:55:04;5.07;;;2.07;;
12663;SDS011;6396;58.490;15.528;2022-07-06T01:57:31;3.57;;;2.00;;
12663;SDS011;6396;58.490;15.528;2022-07-06T01:59:58;2.93;;;1.93;;
12663;SDS011;6396;58.490;15.528;2022-07-06T02:02:25;3.23;;;1.60;;
12663;SDS011;6396;58.490;15.528;2022-07-06T02:04:52;3.83;;;2.23;;
12663;SDS011;6396;58.490;15.528;2022-07-06T02:07:18;4.83;;;1.97;;
12663;SDS011;6396;58.490;15.528;2022-07-06T02:09:45;2.80;;;1.90;;
12663;SDS011;6396;58.490;15.528;2022-07-06T02:12:13;3.53;;;2.00;;
12663;SDS011;6396;58.490;15.528;2022-07-06T02:14:40;3.57;;;1.90;;
12663;SDS011;6396;58.490;15.528;2022-07-06T02:17:07;6.77;;;1.87;;
12663;SDS011;6396;58.490;15.528;2022-07-06T02:19:34;2.33;;;1.47;;
12663;SDS011;6396;58.490;15.528;2022-07-06T02:22:00;3.00;;;1.70;;
12663;SDS011;6396;58.490;15.528;2022-07-06T02:24:27;4.70;;;1.80;;
12663;SDS011;6396;58.490;15.528;2022-07-06T02:26:54;7.03;;;2.73;;
12663;SDS011;6396;58.490;15.528;2022-07-06T02:29:22;2.30;;;2.10;;
12663;SDS011;6396;58.490;15.528;2022-07-06T02:31:51;3.00;;;1.63;;
12663;SDS011;6396;58.490;15.528;2022-07-06T02:34:17;5.77;;;2.20;;
12663;SDS011;6396;58.490;15.528;2022-07-06T02:36:44;4.30;;;1.80;;
12663;SDS011;6396;58.490;15.528;2022-07-06T02:39:11;3.47;;;1.80;;
12663;SDS011;6396;58.490;15.528;2022-07-06T02:41:38;5.47;;;1.90;;
12663;SDS011;6396;58.490;15.528;2022-07-06T02:44:05;3.47;;;2.00;;
12663;SDS011;6396;58.490;15.528;2022-07-06T02:46:33;4.33;;;1.93;;
12663;SDS011;6396;58.490;15.528;2022-07-06T02:49:00;6.00;;;2.30;;
12663;SDS011;6396;58.490;15.528;2022-07-06T02:51:26;4.23;;;1.80;;
12663;SDS011;6396;58.490;15.528;2022-07-06T02:53:53;3.77;;;1.80;;
12663;SDS011;6396;58.490;15.528;2022-07-06T02:56:20;3.50;;;2.27;;
12663;SDS011;6396;58.490;15.528;2022-07-06T02:58:46;4.43;;;1.83;;
12663;SDS011;6396;58.490;15.528;2022-07-06T03:01:13;4.63;;;1.63;;
12663;SDS011;6396;58.490;15.528;2022-07-06T03:03:41;3.57;;;1.70;;
12663;SDS011;6396;58.490;15.528;2022-07-06T03:06:08;4.30;;;1.87;;
12663;SDS011;6396;58.490;15.528;2022-07-06T03:08:35;5.37;;;1.90;;
12663;SDS011;6396;58.490;15.528;2022-07-06T03:11:02;4.27;;;1.97;;
12663;SDS011;6396;58.490;15.528;2022-07-06T03:13:28;5.03;;;2.30;;
12663;SDS011;6396;58.490;15.528;2022-07-06T03:15:56;4.07;;;2.13;;
12663;SDS011;6396;58.490;15.528;2022-07-06T03:18:23;4.57;;;2.13;;
12663;SDS011;6396;58.490;15.528;2022-07-06T03:20:51;5.20;;;2.00;;
12663;SDS011;6396;58.490;15.528;2022-07-06T03:23:18;4.13;;;2.00;;
12663;SDS011;6396;58.490;15.528;2022-07-06T03:25:44;2.87;;;1.70;;
12663;SDS011;6396;58.490;15.528;2022-07-06T03:28:11;5.97;;;2.33;;
12663;SDS011;6396;58.490;15.528;2022-07-06T03:30:38;2.67;;;1.80;;
12663;SDS011;6396;58.490;15.528;2022-07-06T03:33:08;3.80;;;2.27;;
12663;SDS011;6396;58.490;15.528;2022-07-06T03:35:34;7.27;;;2.67;;
12663;SDS011;6396;58.490;15.528;2022-07-06T03:38:03;4.00;;;2.10;;
12663;SDS011;6396;58.490;15.528;2022-07-06T03:40:30;1.83;;;1.50;;
12663;SDS011;6396;58.490;15.528;2022-07-06T03:42:56;2.77;;;1.70;;
12663;SDS011;6396;58.490;15.528;2022-07-06T03:45:23;3.90;;;1.83;;
12663;SDS011;6396;58.490;15.528;2022-07-06T03:47:50;4.47;;;1.87;;
12663;SDS011;6396;58.490;15.528;2022-07-06T03:50:17;3.10;;;1.83;;
12663;SDS011;6396;58.490;15.528;2022-07-06T03:52:44;4.10;;;2.33;;
12663;SDS011;6396;58.490;15.528;2022-07-06T03:55:14;3.40;;;2.10;;
12663;SDS011;6396;58.490;15.528;2022-07-06T03:57:41;4.80;;;1.80;;
12663;SDS011;6396;58.490;15.528;2022-07-06T04:00:08;2.63;;;1.80;;
12663;SDS011;6396;58.490;15.528;2022-07-06T04:02:36;4.47;;;2.00;;
12663;SDS011;6396;58.490;15.528;2022-07-06T04:05:03;3.90;;;2.07;;
12663;SDS011;6396;58.490;15.528;2022-07-06T04:07:30;2.90;;;1.60;;
12663;SDS011;6396;58.490;15.528;2022-07-06T04:09:57;4.40;;;1.70;;
12663;SDS011;6396;58.490;15.528;2022-07-06T04:12:26;5.43;;;2.00;;
12663;SDS011;6396;58.490;15.528;2022-07-06T04:14:55;4.60;;;1.80;;
12663;SDS011;6396;58.490;15.528;2022-07-06T04:17:22;4.30;;;1.90;;
12663;SDS011;6396;58.490;15.528;2022-07-06T04:20:07;3.53;;;2.10;;
12663;SDS011;6396;58.490;15.528;2022-07-06T04:22:36;3.30;;;1.87;;
12663;SDS011;6396;58.490;15.528;2022-07-06T04:25:04;2.83;;;1.87;;
12663;SDS011;6396;58.490;15.528;2022-07-06T04:27:33;5.53;;;2.80;;
12663;SDS011;6396;58.490;15.528;2022-07-06T04:30:00;5.60;;;2.10;;
12663;SDS011;6396;58.490;15.528;2022-07-06T04:32:26;5.33;;;2.53;;
12663;SDS011;6396;58.490;15.528;2022-07-06T04:34:53;5.27;;;2.00;;
12663;SDS011;6396;58.490;15.528;2022-07-06T04:37:20;4.77;;;1.93;;
12663;SDS011;6396;58.490;15.528;2022-07-06T04:39:47;5.00;;;2.30;;
12663;SDS011;6396;58.490;15.528;2022-07-06T04:42:13;6.93;;;2.20;;
12663;SDS011;6396;58.490;15.528;2022-07-06T04:44:41;3.73;;;2.30;;
12663;SDS011;6396;58.490;15.528;2022-07-06T04:47:08;4.27;;;2.60;;
12663;SDS011;6396;58.490;15.528;2022-07-06T04:49:35;8.40;;;2.87;;
12663;SDS011;6396;58.490;15.528;2022-07-06T04:52:02;4.30;;;2.50;;
12663;SDS011;6396;58.490;15.528;2022-07-06T04:54:29;3.80;;;2.23;;
12663;SDS011;6396;58.490;15.528;2022-07-06T04:56:56;5.67;;;2.40;;
12663;SDS011;6396;58.490;15.528;2022-07-06T04:59:23;4.40;;;2.10;;
12663;SDS011;6396;58.490;15.528;2022-07-06T05:01:51;4.33;;;1.97;;
12663;SDS011;6396;58.490;15.528;2022-07-06T05:04:18;3.33;;;1.87;;
12663;SDS011;6396;58.490;15.528;2022-07-06T05:06:45;5.93;;;2.30;;
12663;SDS011;6396;58.490;15.528;2022-07-06T05:09:13;6.13;;;2.00;;
12663;SDS011;6396;58.490;15.528;2022-07-06T05:11:39;5.07;;;2.23;;
12663;SDS011;6396;58.490;15.528;2022-07-06T05:14:06;6.40;;;2.57;;
12663;SDS011;6396;58.490;15.528;2022-07-06T05:16:33;6.73;;;2.23;;
12663;SDS011;6396;58.490;15.528;2022-07-06T05:19:01;5.17;;;2.07;;
12663;SDS011;6396;58.490;15.528;2022-07-06T05:21:28;8.80;;;2.60;;
12663;SDS011;6396;58.490;15.528;2022-07-06T05:23:55;5.50;;;2.10;;
12663;SDS011;6396;58.490;15.528;2022-07-06T05:26:22;6.37;;;2.83;;
12663;SDS011;6396;58.490;15.528;2022-07-06T05:28:49;5.37;;;2.50;;
12663;SDS011;6396;58.490;15.528;2022-07-06T05:31:15;7.40;;;2.37;;
12663;SDS011;6396;58.490;15.528;2022-07-06T05:33:42;5.53;;;2.30;;
12663;SDS011;6396;58.490;15.528;2022-07-06T05:36:10;4.97;;;2.80;;
12663;SDS011;6396;58.490;15.528;2022-07-06T05:38:37;5.13;;;2.00;;
12663;SDS011;6396;58.490;15.528;2022-07-06T05:41:04;6.13;;;2.30;;
12663;SDS011;6396;58.490;15.528;2022-07-06T05:43:30;4.47;;;2.00;;
12663;SDS011;6396;58.490;15.528;2022-07-06T05:45:57;4.33;;;2.27;;
12663;SDS011;6396;58.490;15.528;2022-07-06T05:48:24;5.73;;;3.07;;
12663;SDS011;6396;58.490;15.528;2022-07-06T05:51:08;5.53;;;2.13;;
12663;SDS011;6396;58.490;15.528;2022-07-06T05:53:36;5.93;;;2.47;;
12663;SDS011;6396;58.490;15.528;2022-07-06T05:56:03;5.97;;;1.93;;
12663;SDS011;6396;58.490;15.528;2022-07-06T05:58:31;6.87;;;2.77;;
12663;SDS011;6396;58.490;15.528;2022-07-06T06:00:57;4.00;;;2.10;;
12663;SDS011;6396;58.490;15.528;2022-07-06T06:03:24;10.53;;;2.20;;
12663;SDS011;6396;58.490;15.528;2022-07-06T06:05:51;5.27;;;2.40;;
12663;SDS011;6396;58.490;15.528;2022-07-06T06:08:18;3.30;;;2.03;;
12663;SDS011;6396;58.490;15.528;2022-07-06T06:10:46;7.43;;;2.77;;
12663;SDS011;6396;58.490;15.528;2022-07-06T06:13:13;4.97;;;2.10;;
12663;SDS011;6396;58.490;15.528;2022-07-06T06:15:40;7.43;;;2.43;;
12663;SDS011;6396;58.490;15.528;2022-07-06T06:18:07;4.00;;;2.00;;
12663;SDS011;6396;58.490;15.528;2022-07-06T06:20:34;5.17;;;2.10;;
12663;SDS011;6396;58.490;15.528;2022-07-06T06:23:00;6.43;;;2.40;;
12663;SDS011;6396;58.490;15.528;2022-07-06T06:25:30;4.00;;;1.90;;
12663;SDS011;6396;58.490;15.528;2022-07-06T06:27:59;5.57;;;2.00;;
12663;SDS011;6396;58.490;15.528;2022-07-06T06:30:27;8.57;;;2.30;;
12663;SDS011;6396;58.490;15.528;2022-07-06T06:33:04;5.27;;;1.93;;
12663;SDS011;6396;58.490;15.528;2022-07-06T06:35:32;4.17;;;2.03;;
12663;SDS011;6396;58.490;15.528;2022-07-06T06:37:59;5.30;;;2.27;;
12663;SDS011;6396;58.490;15.528;2022-07-06T06:40:25;8.37;;;2.50;;
12663;SDS011;6396;58.490;15.528;2022-07-06T06:42:52;4.63;;;1.87;;
12663;SDS011;6396;58.490;15.528;2022-07-06T06:45:21;8.00;;;2.30;;
12663;SDS011;6396;58.490;15.528;2022-07-06T06:47:48;6.30;;;2.20;;
12663;SDS011;6396;58.490;15.528;2022-07-06T06:50:15;5.00;;;2.40;;
12663;SDS011;6396;58.490;15.528;2022-07-06T06:52:42;5.80;;;1.97;;
12663;SDS011;6396;58.490;15.528;2022-07-06T06:55:08;4.60;;;2.13;;
12663;SDS011;6396;58.490;15.528;2022-07-06T06:57:35;5.30;;;2.00;;
12663;SDS011;6396;58.490;15.528;2022-07-06T07:00:03;3.40;;;2.23;;
12663;SDS011;6396;58.490;15.528;2022-07-06T07:02:32;4.63;;;1.70;;
12663;SDS011;6396;58.490;15.528;2022-07-06T07:04:59;5.77;;;2.23;;
12663;SDS011;6396;58.490;15.528;2022-07-06T07:07:26;2.50;;;1.80;;
12663;SDS011;6396;58.490;15.528;2022-07-06T07:09:52;4.60;;;2.00;;
12663;SDS011;6396;58.490;15.528;2022-07-06T07:12:19;4.60;;;2.00;;
12663;SDS011;6396;58.490;15.528;2022-07-06T07:14:46;6.60;;;2.20;;
12663;SDS011;6396;58.490;15.528;2022-07-06T07:17:13;5.10;;;1.97;;
12663;SDS011;6396;58.490;15.528;2022-07-06T07:19:42;5.60;;;2.17;;
12663;SDS011;6396;58.490;15.528;2022-07-06T07:22:08;4.70;;;1.90;;
12663;SDS011;6396;58.490;15.528;2022-07-06T07:24:35;5.17;;;2.00;;
12663;SDS011;6396;58.490;15.528;2022-07-06T07:27:02;7.80;;;2.10;;
12663;SDS011;6396;58.490;15.528;2022-07-06T07:29:30;3.73;;;1.80;;
12663;SDS011;6396;58.490;15.528;2022-07-06T07:31:57;4.43;;;1.80;;
12663;SDS011;6396;58.490;15.528;2022-07-06T07:34:23;5.20;;;2.10;;
12663;SDS011;6396;58.490;15.528;2022-07-06T07:36:52;3.33;;;1.90;;
12663;SDS011;6396;58.490;15.528;2022-07-06T07:39:18;5.47;;;1.80;;
12663;SDS011;6396;58.490;15.528;2022-07-06T07:41:45;7.57;;;1.87;;
12663;SDS011;6396;58.490;15.528;2022-07-06T07:44:12;5.30;;;1.80;;
12663;SDS011;6396;58.490;15.528;2022-07-06T07:46:39;4.70;;;1.90;;
12663;SDS011;6396;58.490;15.528;2022-07-06T07:49:05;8.10;;;2.00;;
12663;SDS011;6396;58.490;15.528;2022-07-06T07:51:32;6.53;;;2.03;;
12663;SDS011;6396;58.490;15.528;2022-07-06T07:54:01;5.00;;;1.50;;
12663;SDS011;6396;58.490;15.528;2022-07-06T07:56:27;6.37;;;1.80;;
12663;SDS011;6396;58.490;15.528;2022-07-06T07:58:54;5.23;;;1.90;;
12663;SDS011;6396;58.490;15.528;2022-07-06T08:01:21;3.93;;;1.53;;
12663;SDS011;6396;58.490;15.528;2022-07-06T08:03:48;2.70;;;1.60;;
12663;SDS011;6396;58.490;15.528;2022-07-06T08:06:15;3.27;;;1.50;;
12663;SDS011;6396;58.490;15.528;2022-07-06T08:08:41;4.90;;;1.70;;
12663;SDS011;6396;58.490;15.528;2022-07-06T08:11:10;3.57;;;1.53;;
12663;SDS011;6396;58.490;15.528;2022-07-06T08:13:37;3.67;;;1.53;;
12663;SDS011;6396;58.490;15.528;2022-07-06T08:16:04;4.67;;;1.93;;
12663;SDS011;6396;58.490;15.528;2022-07-06T08:18:30;3.30;;;1.20;;
12663;SDS011;6396;58.490;15.528;2022-07-06T08:20:58;3.90;;;1.43;;
12663;SDS011;6396;58.490;15.528;2022-07-06T08:23:25;4.47;;;1.43;;
12663;SDS011;6396;58.490;15.528;2022-07-06T08:25:53;3.57;;;1.33;;
12663;SDS011;6396;58.490;15.528;2022-07-06T08:28:21;3.87;;;1.50;;
12663;SDS011;6396;58.490;15.528;2022-07-06T08:30:48;3.47;;;1.37;;
12663;SDS011;6396;58.490;15.528;2022-07-06T08:33:15;1.43;;;1.30;;
12663;SDS011;6396;58.490;15.528;2022-07-06T08:35:42;2.73;;;1.40;;
12663;SDS011;6396;58.490;15.528;2022-07-06T08:38:09;3.07;;;1.50;;
12663;SDS011;6396;58.490;15.528;2022-07-06T08:40:35;3.27;;;1.43;;
12663;SDS011;6396;58.490;15.528;2022-07-06T08:43:06;4.07;;;1.90;;
12663;SDS011;6396;58.490;15.528;2022-07-06T08:45:35;3.33;;;1.30;;
12663;SDS011;6396;58.490;15.528;2022-07-06T08:48:03;2.40;;;1.60;;
12663;SDS011;6396;58.490;15.528;2022-07-06T08:50:37;3.93;;;1.50;;
12663;SDS011;6396;58.490;15.528;2022-07-06T08:53:05;5.03;;;1.80;;
12663;SDS011;6396;58.490;15.528;2022-07-06T08:55:32;4.13;;;1.50;;
12663;SDS011;6396;58.490;15.528;2022-07-06T08:58:01;1.63;;;1.07;;
12663;SDS011;6396;58.490;15.528;2022-07-06T09:00:29;2.40;;;1.20;;
12663;SDS011;6396;58.490;15.528;2022-07-06T09:02:59;2.37;;;1.20;;
12663;SDS011;6396;58.490;15.528;2022-07-06T09:05:26;4.03;;;1.70;;
12663;SDS011;6396;58.490;15.528;2022-07-06T09:07:54;3.43;;;1.40;;
12663;SDS011;6396;58.490;15.528;2022-07-06T09:10:23;3.33;;;1.53;;
12663;SDS011;6396;58.490;15.528;2022-07-06T09:12:50;2.00;;;1.30;;
12663;SDS011;6396;58.490;15.528;2022-07-06T09:15:16;1.67;;;1.10;;
12663;SDS011;6396;58.490;15.528;2022-07-06T09:17:43;2.50;;;1.10;;
12663;SDS011;6396;58.490;15.528;2022-07-06T09:20:14;3.00;;;1.30;;
12663;SDS011;6396;58.490;15.528;2022-07-06T09:22:41;2.10;;;1.13;;
12663;SDS011;6396;58.490;15.528;2022-07-06T09:25:08;5.27;;;1.80;;
12663;SDS011;6396;58.490;15.528;2022-07-06T09:27:37;1.33;;;1.17;;
12663;SDS011;6396;58.490;15.528;2022-07-06T09:30:06;3.53;;;1.40;;
12663;SDS011;6396;58.490;15.528;2022-07-06T09:32:38;3.40;;;1.30;;
12663;SDS011;6396;58.490;15.528;2022-07-06T09:35:06;2.93;;;1.10;;
12663;SDS011;6396;58.490;15.528;2022-07-06T09:37:35;1.37;;;0.90;;
12663;SDS011;6396;58.490;15.528;2022-07-06T09:40:03;1.83;;;1.10;;
12663;SDS011;6396;58.490;15.528;2022-07-06T09:42:43;3.40;;;1.33;;
12663;SDS011;6396;58.490;15.528;2022-07-06T09:45:10;4.10;;;1.07;;
12663;SDS011;6396;58.490;15.528;2022-07-06T09:47:37;2.00;;;1.10;;
12663;SDS011;6396;58.490;15.528;2022-07-06T09:50:04;2.43;;;1.13;;
12663;SDS011;6396;58.490;15.528;2022-07-06T09:52:34;2.03;;;1.00;;
12663;SDS011;6396;58.490;15.528;2022-07-06T09:55:05;1.67;;;1.00;;
12663;SDS011;6396;58.490;15.528;2022-07-06T09:57:51;1.50;;;1.00;;
12663;SDS011;6396;58.490;15.528;2022-07-06T10:00:18;0.93;;;0.83;;
12663;SDS011;6396;58.490;15.528;2022-07-06T10:02:45;1.60;;;1.10;;
12663;SDS011;6396;58.490;15.528;2022-07-06T10:05:14;3.17;;;1.43;;
12663;SDS011;6396;58.490;15.528;2022-07-06T10:07:44;4.83;;;1.47;;
12663;SDS011;6396;58.490;15.528;2022-07-06T10:10:13;2.27;;;1.20;;
12663;SDS011;6396;58.490;15.528;2022-07-06T10:12:42;1.03;;;0.80;;
12663;SDS011;6396;58.490;15.528;2022-07-06T10:15:13;1.40;;;0.80;;
12663;SDS011;6396;58.490;15.528;2022-07-06T10:17:45;2.03;;;0.70;;
12663;SDS011;6396;58.490;15.528;2022-07-06T10:20:13;0.80;;;0.80;;
12663;SDS011;6396;58.490;15.528;2022-07-06T10:22:42;4.73;;;1.40;;
12663;SDS011;6396;58.490;15.528;2022-07-06T10:25:10;3.20;;;1.90;;
12663;SDS011;6396;58.490;15.528;2022-07-06T10:27:38;0.97;;;0.97;;
12663;SDS011;6396;58.490;15.528;2022-07-06T10:30:06;1.60;;;1.03;;
12663;SDS011;6396;58.490;15.528;2022-07-06T10:32:34;1.90;;;1.03;;
12663;SDS011;6396;58.490;15.528;2022-07-06T10:35:02;1.10;;;0.90;;
12663;SDS011;6396;58.490;15.528;2022-07-06T10:37:29;1.03;;;0.77;;
12663;SDS011;6396;58.490;15.528;2022-07-06T10:39:59;1.60;;;0.70;;
12663;SDS011;6396;58.490;15.528;2022-07-06T10:42:44;0.77;;;0.77;;
12663;SDS011;6396;58.490;15.528;2022-07-06T10:45:15;1.10;;;0.70;;
12663;SDS011;6396;58.490;15.528;2022-07-06T10:47:47;0.80;;;0.80;;
12663;SDS011;6396;58.490;15.528;2022-07-06T10:50:16;0.93;;;0.60;;
12663;SDS011;6396;58.490;15.528;2022-07-06T10:52:48;0.83;;;0.70;;
12663;SDS011;6396;58.490;15.528;2022-07-06T10:55:33;1.00;;;0.77;;
12663;SDS011;6396;58.490;15.528;2022-07-06T10:58:02;1.13;;;0.60;;
12663;SDS011;6396;58.490;15.528;2022-07-06T11:00:48;0.73;;;0.73;;
12663;SDS011;6396;58.490;15.528;2022-07-06T11:03:36;0.67;;;0.67;;
12663;SDS011;6396;58.490;15.528;2022-07-06T11:06:05;1.23;;;0.80;;
12663;SDS011;6396;58.490;15.528;2022-07-06T11:11:21;0.73;;;0.73;;
12663;SDS011;6396;58.490;15.528;2022-07-06T11:13:57;0.80;;;0.60;;
12663;SDS011;6396;58.490;15.528;2022-07-06T11:16:26;0.60;;;0.60;;
12663;SDS011;6396;58.490;15.528;2022-07-06T11:18:59;0.60;;;0.60;;
12663;SDS011;6396;58.490;15.528;2022-07-06T11:21:37;0.57;;;0.50;;
12663;SDS011;6396;58.490;15.528;2022-07-06T11:24:07;1.73;;;0.70;;
12663;SDS011;6396;58.490;15.528;2022-07-06T11:26:36;1.43;;;0.67;;
12663;SDS011;6396;58.490;15.528;2022-07-06T11:29:04;0.60;;;0.60;;
12663;SDS011;6396;58.490;15.528;2022-07-06T11:31:35;0.63;;;0.63;;
12663;SDS011;6396;58.490;15.528;2022-07-06T11:34:03;0.53;;;0.53;;
12663;SDS011;6396;58.490;15.528;2022-07-06T11:36:31;0.70;;;0.60;;
12663;SDS011;6396;58.490;15.528;2022-07-06T11:38:58;0.50;;;0.50;;
12663;SDS011;6396;58.490;15.528;2022-07-06T11:41:25;1.20;;;0.60;;
12663;SDS011;6396;58.490;15.528;2022-07-06T11:43:53;0.93;;;0.47;;
12663;SDS011;6396;58.490;15.528;2022-07-06T11:46:24;0.60;;;0.60;;
12663;SDS011;6396;58.490;15.528;2022-07-06T11:48:53;1.20;;;0.60;;
12663;SDS011;6396;58.490;15.528;2022-07-06T11:51:21;1.03;;;0.63;;
12663;SDS011;6396;58.490;15.528;2022-07-06T11:53:50;0.60;;;0.60;;
12663;SDS011;6396;58.490;15.528;2022-07-06T11:56:18;0.73;;;0.50;;
12663;SDS011;6396;58.490;15.528;2022-07-06T11:58:47;0.83;;;0.63;;
12663;SDS011;6396;58.490;15.528;2022-07-06T12:01:17;1.80;;;0.70;;
12663;SDS011;6396;58.490;15.528;2022-07-06T12:03:44;0.67;;;0.47;;
12663;SDS011;6396;58.490;15.528;2022-07-06T12:06:15;4.83;;;0.70;;
12663;SDS011;6396;58.490;15.528;2022-07-06T12:08:45;0.40;;;0.40;;
12663;SDS011;6396;58.490;15.528;2022-07-06T12:11:17;0.60;;;0.60;;
12663;SDS011;6396;58.490;15.528;2022-07-06T12:13:46;1.53;;;0.50;;
12663;SDS011;6396;58.490;15.528;2022-07-06T12:16:13;0.60;;;0.50;;
12663;SDS011;6396;58.490;15.528;2022-07-06T12:18:44;0.80;;;0.50;;
12663;SDS011;6396;58.490;15.528;2022-07-06T12:21:13;0.50;;;0.50;;
12663;SDS011;6396;58.490;15.528;2022-07-06T12:23:43;0.60;;;0.60;;
12663;SDS011;6396;58.490;15.528;2022-07-06T12:26:11;1.13;;;0.50;;
12663;SDS011;6396;58.490;15.528;2022-07-06T12:28:39;0.50;;;0.50;;
12663;SDS011;6396;58.490;15.528;2022-07-06T12:31:06;0.40;;;0.40;;
12663;SDS011;6396;58.490;15.528;2022-07-06T12:33:34;0.40;;;0.40;;
12663;SDS011;6396;58.490;15.528;2022-07-06T12:36:14;0.40;;;0.40;;
12663;SDS011;6396;58.490;15.528;2022-07-06T12:38:45;0.83;;;0.70;;
12663;SDS011;6396;58.490;15.528;2022-07-06T12:41:29;0.40;;;0.40;;
12663;SDS011;6396;58.490;15.528;2022-07-06T12:46:46;0.77;;;0.50;;
12663;SDS011;6396;58.490;15.528;2022-07-06T12:49:14;1.13;;;0.50;;
12663;SDS011;6396;58.490;15.528;2022-07-06T12:51:54;0.77;;;0.73;;
12663;SDS011;6396;58.490;15.528;2022-07-06T12:54:22;0.77;;;0.50;;
12663;SDS011;6396;58.490;15.528;2022-07-06T12:57:07;0.50;;;0.50;;
12663;SDS011;6396;58.490;15.528;2022-07-06T12:59:38;0.50;;;0.50;;
12663;SDS011;6396;58.490;15.528;2022-07-06T13:02:07;0.60;;;0.60;;
12663;SDS011;6396;58.490;15.528;2022-07-06T13:04:36;0.50;;;0.50;;
12663;SDS011;6396;58.490;15.528;2022-07-06T13:07:05;1.90;;;0.70;;
12663;SDS011;6396;58.490;15.528;2022-07-06T13:09:32;0.33;;;0.33;;
12663;SDS011;6396;58.490;15.528;2022-07-06T13:11:59;0.40;;;0.40;;
12663;SDS011;6396;58.490;15.528;2022-07-06T13:14:26;0.90;;;0.47;;
12663;SDS011;6396;58.490;15.528;2022-07-06T13:16:53;2.00;;;0.60;;
12663;SDS011;6396;58.490;15.528;2022-07-06T13:19:20;0.30;;;0.30;;
12663;SDS011;6396;58.490;15.528;2022-07-06T13:21:47;0.97;;;0.40;;
12663;SDS011;6396;58.490;15.528;2022-07-06T13:24:16;0.67;;;0.67;;
12663;SDS011;6396;58.490;15.528;2022-07-06T13:26:43;0.97;;;0.50;;
12663;SDS011;6396;58.490;15.528;2022-07-06T13:29:10;0.50;;;0.50;;
12663;SDS011;6396;58.490;15.528;2022-07-06T13:31:37;0.43;;;0.43;;
12663;SDS011;6396;58.490;15.528;2022-07-06T13:34:05;0.53;;;0.50;;
12663;SDS011;6396;58.490;15.528;2022-07-06T13:36:32;0.40;;;0.40;;
12663;SDS011;6396;58.490;15.528;2022-07-06T13:38:59;0.77;;;0.40;;
12663;SDS011;6396;58.490;15.528;2022-07-06T13:41:28;1.27;;;0.53;;
12663;SDS011;6396;58.490;15.528;2022-07-06T13:43:54;0.90;;;0.50;;
12663;SDS011;6396;58.490;15.528;2022-07-06T13:46:21;0.60;;;0.60;;
12663;SDS011;6396;58.490;15.528;2022-07-06T13:48:48;0.50;;;0.50;;
12663;SDS011;6396;58.490;15.528;2022-07-06T13:51:16;0.40;;;0.40;;
12663;SDS011;6396;58.490;15.528;2022-07-06T13:53:43;1.00;;;0.47;;
12663;SDS011;6396;58.490;15.528;2022-07-06T13:56:10;0.40;;;0.40;;
12663;SDS011;6396;58.490;15.528;2022-07-06T13:58:39;1.43;;;0.60;;
12663;SDS011;6396;58.490;15.528;2022-07-06T14:01:05;0.40;;;0.40;;
12663;SDS011;6396;58.490;15.528;2022-07-06T14:03:32;1.17;;;0.50;;
12663;SDS011;6396;58.490;15.528;2022-07-06T14:06:02;0.60;;;0.60;;
12663;SDS011;6396;58.490;15.528;2022-07-06T14:08:29;0.70;;;0.60;;
12663;SDS011;6396;58.490;15.528;2022-07-06T14:10:56;0.50;;;0.50;;
12663;SDS011;6396;58.490;15.528;2022-07-06T14:13:23;0.50;;;0.50;;
12663;SDS011;6396;58.490;15.528;2022-07-06T14:15:52;1.07;;;0.60;;
12663;SDS011;6396;58.490;15.528;2022-07-06T14:18:20;0.60;;;0.60;;
12663;SDS011;6396;58.490;15.528;2022-07-06T14:20:48;0.40;;;0.40;;
12663;SDS011;6396;58.490;15.528;2022-07-06T14:23:15;1.70;;;0.60;;
12663;SDS011;6396;58.490;15.528;2022-07-06T14:25:43;0.50;;;0.40;;
12663;SDS011;6396;58.490;15.528;2022-07-06T14:28:11;1.87;;;0.40;;
12663;SDS011;6396;58.490;15.528;2022-07-06T14:30:38;0.50;;;0.50;;
12663;SDS011;6396;58.490;15.528;2022-07-06T14:33:08;0.50;;;0.50;;
12663;SDS011;6396;58.490;15.528;2022-07-06T14:35:37;1.00;;;0.77;;
12663;SDS011;6396;58.490;15.528;2022-07-06T14:38:04;0.60;;;0.60;;
12663;SDS011;6396;58.490;15.528;2022-07-06T14:40:33;0.50;;;0.50;;
12663;SDS011;6396;58.490;15.528;2022-07-06T14:43:00;0.67;;;0.67;;
12663;SDS011;6396;58.490;15.528;2022-07-06T14:45:28;1.10;;;0.60;;
12663;SDS011;6396;58.490;15.528;2022-07-06T14:47:55;0.77;;;0.60;;
12663;SDS011;6396;58.490;15.528;2022-07-06T14:50:24;0.50;;;0.50;;
12663;SDS011;6396;58.490;15.528;2022-07-06T14:52:51;0.87;;;0.50;;
12663;SDS011;6396;58.490;15.528;2022-07-06T14:55:18;0.60;;;0.60;;
12663;SDS011;6396;58.490;15.528;2022-07-06T14:57:45;1.03;;;0.70;;
12663;SDS011;6396;58.490;15.528;2022-07-06T15:00:12;1.03;;;0.70;;